Flight Track Log - Related Links

Times and Time Zones

All times are in EDT time to prevent confusion due to time zone crossing. See the CTL13 flight status page for this flight to view local times or setup timezone preferences in your user account.

Time Position Orientation Groundspeed Altitude Reporting Facility
EDT Latitude Longitude Course Direction KTS MPH feet Rate Location/Type
Wed 06:41:19 PM 41.5314 -81.6872 342° North 136 157 1,000  Level Cleveland Center
Wed 06:41:37 PM 41.5439 -81.6928 342° North 139 160 1,300 987 Climbing Cleveland Center
Wed 06:42:38 PM 41.5769 -81.7156 333° Northwest 147 169 2,300 992 Climbing Cleveland Center
Wed 06:43:38 PM 41.5975 -81.7633 300° West 139 160 3,300 992 Climbing Cleveland Center
Wed 06:44:39 PM 41.5947 -81.8158 266° West 136 157 4,300 836 Climbing Cleveland Center
Wed 06:45:40 PM 41.5756 -81.8628 241° Southwest 142 163 5,000 626 Climbing Cleveland Center
Wed 06:46:34 PM 41.5583 -81.9039 241° Southwest 151 174 5,500 574 Climbing Cleveland Center
Wed 06:47:35 PM 41.5347 -81.9589 240° Southwest 157 181 6,100 545 Climbing Cleveland Center
Wed 06:48:35 PM 41.5114 -82.0056 236° Southwest 159 183 6,600 496 Climbing Cleveland Center
Wed 06:49:36 PM 41.4919 -82.0578 244° Southwest 160 184 7,100 492 Climbing Cleveland Center
Wed 06:50:37 PM 41.4683 -82.1100 239° Southwest 161 185 7,600 496 Climbing Cleveland Center
Wed 06:51:37 PM 41.4489 -82.1622 244° Southwest 162 186 8,100 248 Climbing Cleveland Center
Wed 06:52:38 PM 41.4250 -82.2197 241° Southwest 178 205 8,100  Level Cleveland Center
Wed 06:54:00 PM 41.3838 -82.2802 228° Southwest  Level FlightAware Approximate
Wed 06:59:24 PM 41.2689 -82.6125 239° Southwest 177 204 8,100  Level Indianapolis Center
Wed 07:00:26 PM 41.2453 -82.6694 241° Southwest 176 203 8,100  Level Indianapolis Center
Wed 07:01:00 PM 41.2472 -82.6562 245° Southwest  Level Estimated
Wed 07:01:28 PM 41.2208 -82.7264 240° Southwest 176 203 8,100  Level Indianapolis Center
Wed 07:02:00 PM 41.2245 -82.7075 239° Southwest  Level FlightAware Approximate
Wed 07:02:30 PM 41.1969 -82.7839 241° Southwest 176 203 8,100  Level Indianapolis Center
Wed 07:03:00 PM 41.2017 -82.7588 239° Southwest  Level FlightAware Approximate
Wed 07:03:32 PM 41.1736 -82.8406 241° Southwest 174 200 8,100  Level Indianapolis Center
Wed 07:04:00 PM 41.1789 -82.8101 239° Southwest  Level FlightAware Approximate
Wed 07:04:34 PM 41.1492 -82.8981 241° Southwest 176 203 8,100  Level Indianapolis Center
Wed 07:05:36 PM 41.1256 -82.9553 241° Southwest 176 203 8,100  Level Indianapolis Center
Wed 07:06:38 PM 41.0986 -83.0231 242° Southwest 177 204 8,100  Level Indianapolis Center
Wed 07:07:40 PM 41.0750 -83.0811 242° Southwest 178 205 8,100  Level Indianapolis Center
Wed 07:08:42 PM 41.0511 -83.1381 241° Southwest 176 203 8,100 -48 Level Indianapolis Center
Wed 07:09:44 PM 41.0272 -83.1967 242° Southwest 179 206 8,000 -48 Descending Indianapolis Center
Wed 07:10:46 PM 41.0036 -83.2550 242° Southwest 179 206 8,000  Level Indianapolis Center
Wed 07:11:48 PM 40.9803 -83.3125 242° Southwest 177 204 8,000  Level Indianapolis Center
Wed 07:12:50 PM 40.9578 -83.3694 242° Southwest 174 200 8,000  Level Indianapolis Center
Wed 07:13:52 PM 40.9292 -83.4350 240° Southwest 176 203 8,000  Level Indianapolis Center
Wed 07:14:54 PM 40.9050 -83.4928 241° Southwest 177 204 8,000  Level Indianapolis Center
Wed 07:15:56 PM 40.8839 -83.5458 242° Southwest 175 201 8,000  Level Indianapolis Center
Wed 07:16:58 PM 40.8608 -83.6022 242° Southwest 174 200 8,000  Level Indianapolis Center
Wed 07:18:00 PM 40.8367 -83.6583 240° Southwest 175 201 8,000  Level Indianapolis Center
Wed 07:19:01 PM 40.8092 -83.7247 241° Southwest 176 203 8,000  Level Indianapolis Center
Wed 07:20:03 PM 40.7850 -83.7803 240° Southwest 176 203 8,000  Level Indianapolis Center
Wed 07:21:05 PM 40.7619 -83.8367 242° Southwest 174 200 8,000  Level Indianapolis Center
Wed 07:22:07 PM 40.7378 -83.8928 240° Southwest 174 200 8,000  Level Indianapolis Center
Wed 07:22:29 PM 40.7261 -83.9183 239° Southwest 174 200 8,000  Level Indianapolis Center
Wed 07:23:09 PM 40.7136 -83.9508 243° Southwest 178 205 8,000  Level Indianapolis Center
Wed 07:23:24 PM 40.7056 -83.9706 242° Southwest 174 200 8,000  Level Indianapolis Center
Wed 07:24:11 PM 40.6878 -84.0042 235° Southwest 174 200 8,000  Level Indianapolis Center
Wed 07:25:26 PM 40.6492 -84.0761 235° Southwest 174 200 8,000  Level Indianapolis Center
Wed 07:26:15 PM 40.6286 -84.1197 238° Southwest 175 201 8,000  Level Indianapolis Center
Wed 07:26:32 PM 40.6194 -84.1353 232° Southwest 174 200 8,000  Level Indianapolis Center
Wed 07:27:17 PM 40.6017 -84.1733 238° Southwest 175 201 8,000  Level Indianapolis Center
Wed 07:27:33 PM 40.5922 -84.1894 232° Southwest 176 203 8,000  Level Indianapolis Center
Wed 07:28:19 PM 40.5731 -84.2261 235° Southwest 176 203 8,000  Level Indianapolis Center
Wed 07:28:34 PM 40.5631 -84.2406 228° Southwest 176 203 8,000  Level Indianapolis Center
Wed 07:29:20 PM 40.5453 -84.2786 238° Southwest 174 200 8,000  Level Indianapolis Center
Wed 07:29:35 PM 40.5358 -84.2944 232° Southwest 175 201 8,000  Level Indianapolis Center
Wed 07:30:22 PM 40.5161 -84.3325 236° Southwest 177 204 8,000  Level Indianapolis Center
Wed 07:31:24 PM 40.4892 -84.3856 236° Southwest 175 201 8,000  Level Indianapolis Center
Wed 07:32:37 PM 40.4500 -84.4528 233° Southwest 176 203 8,000  Level Indianapolis Center
Wed 07:33:28 PM 40.4319 -84.4900 238° Southwest 175 201 8,000  Level Indianapolis Center
Wed 07:34:29 PM 40.3983 -84.5522 235° Southwest 177 204 8,000  Level Indianapolis Center
Wed 07:35:31 PM 40.3714 -84.6050 236° Southwest 174 200 8,000  Level Indianapolis Center
Wed 07:36:33 PM 40.3425 -84.6564 234° Southwest 174 200 8,000  Level Indianapolis Center
Wed 07:37:35 PM 40.3144 -84.7081 235° Southwest 172 198 8,000  Level Indianapolis Center
Wed 07:38:37 PM 40.2864 -84.7611 235° Southwest 174 200 8,000  Level Indianapolis Center
Wed 07:39:38 PM 40.2592 -84.8144 236° Southwest 174 200 8,000  Level Indianapolis Center
Wed 07:40:40 PM 40.2311 -84.8664 235° Southwest 173 199 8,000  Level Indianapolis Center
Wed 07:41:42 PM 40.2003 -84.9206 233° Southwest 174 200 8,000  Level Indianapolis Center
Wed 07:42:44 PM 40.1722 -84.9722 235° Southwest 174 200 8,000  Level Indianapolis Center
Wed 07:43:45 PM 40.1444 -85.0236 235° Southwest 174 200 8,000  Level Indianapolis Center
Wed 07:44:47 PM 40.1117 -85.0847 235° Southwest 174 200 8,000  Level Indianapolis Center
Wed 07:45:49 PM 40.0839 -85.1358 235° Southwest 173 199 8,000 49 Level Indianapolis Center
Wed 07:46:50 PM 40.0553 -85.1869 234° Southwest 173 199 8,100 49 Climbing Indianapolis Center
Wed 07:47:52 PM 40.0422 -85.2506 255° West 179 206 8,100 -97 Level Indianapolis Center
Wed 07:48:54 PM 40.0311 -85.3147 257° West 179 206 7,900 -390 Descending Indianapolis Center
Wed 07:49:55 PM 40.0181 -85.3814 256° West 188 216 7,300 -537 Descending Indianapolis Center
Wed 07:50:57 PM 40.0047 -85.4478 255° West 190 219 6,800 -532 Descending Indianapolis Center
Wed 07:51:59 PM 39.9911 -85.5144 255° West 188 216 6,200 -537 Descending Indianapolis Center
Wed 07:53:00 PM 39.9769 -85.5792 254° West 186 214 5,700 -537 Descending Indianapolis Center
Wed 07:54:02 PM 39.9622 -85.6561 256° West 186 214 5,100 -532 Descending Indianapolis Center
Wed 07:55:04 PM 39.9489 -85.7219 255° West 186 214 4,600 -488 Descending Indianapolis Center
Wed 07:56:05 PM 39.9358 -85.7864 255° West 185 213 4,100 -293 Descending Indianapolis Center
Wed 07:57:07 PM 39.9236 -85.8508 256° West 183 211 4,000 -49 Descending Indianapolis Center
Wed 07:58:08 PM 39.9103 -85.9108 254° West 178 205 4,000  Level Indianapolis Center
Wed 07:59:10 PM 39.8975 -85.9683 254° West 171 197 4,000  Level Indianapolis Center
Wed 08:00:12 PM 39.8869 -86.0269 257° West 167 192 4,000 -488 Level Indianapolis Center
Wed 08:01:13 PM 39.8794 -86.0908 261° West 172 198 3,000 -585 Descending Indianapolis Center
Wed 08:02:15 PM 39.8711 -86.1600 261° West 174 200 2,800 -194 Descending Indianapolis Center

Login

Don't have an account? Register now (free) for customized features, flight alerts, and more!